createdAt,value
2023-05-12T00:02:18.955Z,10.77
2023-05-12T00:04:48.191Z,10.50
2023-05-12T00:07:16.719Z,10.90
2023-05-12T00:09:45.489Z,10.57
2023-05-12T00:12:13.769Z,10.50
2023-05-12T00:14:42.463Z,10.68
2023-05-12T00:17:10.952Z,10.55
2023-05-12T00:19:42.604Z,11.20
2023-05-12T00:22:12.159Z,10.93
2023-05-12T00:24:41.253Z,11.38
2023-05-12T00:27:10.255Z,12.02
2023-05-12T00:29:39.050Z,11.57
2023-05-12T00:32:07.756Z,12.00
2023-05-12T00:34:36.405Z,11.43
2023-05-12T00:37:05.025Z,10.75
2023-05-12T00:39:33.832Z,10.88
2023-05-12T00:42:03.375Z,10.93
2023-05-12T00:44:32.678Z,10.77
2023-05-12T00:47:01.333Z,10.48
2023-05-12T00:49:30.394Z,10.30
2023-05-12T00:51:59.791Z,10.45
2023-05-12T00:54:29.342Z,10.30
2023-05-12T00:56:58.218Z,9.70
2023-05-12T00:59:27.358Z,10.07
2023-05-12T01:01:56.615Z,10.55
2023-05-12T01:04:25.690Z,9.75
2023-05-12T01:07:07.633Z,10.07
2023-05-12T01:09:37.220Z,10.15
2023-05-12T01:12:05.734Z,10.63
2023-05-12T01:14:38.414Z,9.50
2023-05-12T01:17:12.344Z,10.43
2023-05-12T01:19:58.923Z,10.07
2023-05-12T01:22:31.709Z,10.25
2023-05-12T01:25:07.937Z,10.43
2023-05-12T01:27:40.030Z,11.43
2023-05-12T01:30:13.455Z,9.98
2023-05-12T01:32:42.761Z,10.30
2023-05-12T01:35:11.861Z,9.95
2023-05-12T01:37:46.211Z,10.70
2023-05-12T01:40:15.279Z,10.45
2023-05-12T01:42:43.954Z,11.20
2023-05-12T01:45:14.083Z,10.98
2023-05-12T01:47:42.882Z,11.57
2023-05-12T01:50:11.433Z,11.05
2023-05-12T01:52:41.002Z,10.20
2023-05-12T01:55:14.387Z,10.48
2023-05-12T01:57:51.424Z,10.80
2023-05-12T02:00:22.037Z,10.23
2023-05-12T02:02:53.830Z,11.25
2023-05-12T02:05:22.353Z,10.98
2023-05-12T02:07:52.105Z,11.05
2023-05-12T02:10:21.030Z,11.10
2023-05-12T02:12:50.029Z,11.20
2023-05-12T02:15:18.482Z,11.05
2023-05-12T02:17:54.633Z,10.52
2023-05-12T02:20:25.354Z,11.98
2023-05-12T02:22:54.072Z,11.45
2023-05-12T02:25:22.861Z,10.95
2023-05-12T02:27:52.079Z,11.70
2023-05-12T02:30:21.056Z,10.85
2023-05-12T02:32:50.039Z,11.27
2023-05-12T02:35:18.386Z,11.48
2023-05-12T02:37:47.288Z,10.93
2023-05-12T02:40:16.548Z,10.30
2023-05-12T02:42:45.814Z,10.23
2023-05-12T02:45:14.176Z,9.88
2023-05-12T02:47:42.927Z,11.20
2023-05-12T02:50:11.833Z,11.02
2023-05-12T02:52:40.622Z,10.77
2023-05-12T02:55:10.049Z,11.00
2023-05-12T02:57:39.944Z,10.40
2023-05-12T03:00:08.768Z,11.23
2023-05-12T03:05:09.473Z,10.35
2023-05-12T03:07:39.737Z,14.23
2023-05-12T03:10:10.679Z,12.98
2023-05-12T03:12:39.496Z,10.43
2023-05-12T03:15:09.113Z,11.23
2023-05-12T03:17:38.138Z,10.48
2023-05-12T03:20:07.456Z,10.30
2023-05-12T03:22:36.486Z,10.35
2023-05-12T03:25:05.532Z,11.15
2023-05-12T03:27:34.166Z,11.60
2023-05-12T03:30:05.588Z,11.68
2023-05-12T03:32:39.632Z,11.02
2023-05-12T03:35:10.755Z,11.13
2023-05-12T03:37:39.626Z,10.95
2023-05-12T03:40:09.684Z,10.98
2023-05-12T03:42:38.363Z,10.45
2023-05-12T03:45:07.424Z,10.50
2023-05-12T03:47:36.423Z,10.82
2023-05-12T03:50:05.185Z,11.07
2023-05-12T03:52:34.031Z,11.52
2023-05-12T03:55:03.353Z,11.45
2023-05-12T03:57:31.993Z,11.25
2023-05-12T04:00:00.717Z,10.70
2023-05-12T04:02:29.926Z,11.00
2023-05-12T04:04:58.790Z,11.20
2023-05-12T04:07:28.192Z,10.85
2023-05-12T04:09:56.524Z,10.55
2023-05-12T04:12:26.375Z,10.20
2023-05-12T04:14:55.082Z,10.55
2023-05-12T04:17:23.949Z,10.65
2023-05-12T04:19:53.982Z,11.25
2023-05-12T04:22:24.834Z,11.30
2023-05-12T04:24:53.918Z,13.17
2023-05-12T04:27:22.687Z,11.95
2023-05-12T04:29:51.782Z,12.48
2023-05-12T04:32:20.477Z,11.40
2023-05-12T04:34:48.836Z,11.15
2023-05-12T04:37:18.201Z,11.90
2023-05-12T04:39:46.873Z,12.35
2023-05-12T04:42:15.528Z,13.25
2023-05-12T04:44:46.252Z,14.55
2023-05-12T04:47:15.956Z,11.32
2023-05-12T04:49:44.219Z,10.90
2023-05-12T04:52:15.238Z,9.07
2023-05-12T04:54:44.001Z,8.65
2023-05-12T04:57:13.020Z,8.27
2023-05-12T04:59:42.719Z,8.77
2023-05-12T05:02:14.757Z,8.43
2023-05-12T05:04:43.278Z,7.82
2023-05-12T05:07:12.176Z,8.70
2023-05-12T05:09:40.519Z,8.23
2023-05-12T05:12:09.232Z,7.93
2023-05-12T05:14:37.641Z,6.78
2023-05-12T05:17:08.172Z,7.78
2023-05-12T05:19:49.843Z,7.15
2023-05-12T05:22:23.565Z,7.80
2023-05-12T05:24:52.060Z,7.22
2023-05-12T05:27:20.906Z,7.25
2023-05-12T05:29:49.510Z,7.57
2023-05-12T05:32:18.568Z,7.35
2023-05-12T05:34:46.946Z,6.88
2023-05-12T05:37:15.585Z,6.43
2023-05-12T05:39:44.065Z,6.25
2023-05-12T05:42:12.945Z,6.40
2023-05-12T05:44:42.933Z,6.55
2023-05-12T05:47:11.857Z,6.55
2023-05-12T05:49:41.005Z,5.95
2023-05-12T05:52:10.445Z,5.68
2023-05-12T05:54:39.483Z,5.60
2023-05-12T05:57:08.251Z,6.32
2023-05-12T05:59:37.162Z,6.20
2023-05-12T06:02:07.468Z,5.93
2023-05-12T06:04:35.876Z,6.30
2023-05-12T06:07:04.567Z,5.20
2023-05-12T06:09:32.853Z,5.60
2023-05-12T06:12:01.415Z,6.63
2023-05-12T06:14:30.122Z,7.00
2023-05-12T06:16:58.855Z,5.75
2023-05-12T06:19:27.069Z,5.68
2023-05-12T06:21:55.845Z,5.15
2023-05-12T06:24:25.407Z,5.70
2023-05-12T06:26:54.012Z,5.65
2023-05-12T06:29:22.904Z,5.97
2023-05-12T06:31:51.459Z,5.82
2023-05-12T06:34:19.746Z,5.57
2023-05-12T06:36:49.108Z,5.22
2023-05-12T06:39:17.422Z,5.07
2023-05-12T06:41:46.946Z,5.15
2023-05-12T06:44:21.995Z,4.80
2023-05-12T06:46:53.936Z,5.18
2023-05-12T06:49:22.282Z,5.03
2023-05-12T06:51:50.787Z,5.30
2023-05-12T06:54:19.080Z,5.38
2023-05-12T06:56:47.778Z,4.97
2023-05-12T06:59:16.092Z,5.20
2023-05-12T07:01:44.807Z,5.45
2023-05-12T07:04:13.671Z,5.68
2023-05-12T07:06:42.589Z,4.97
2023-05-12T07:09:10.850Z,5.20
2023-05-12T07:11:42.512Z,5.03
2023-05-12T07:14:10.986Z,4.90
2023-05-12T07:16:43.430Z,4.55
2023-05-12T07:19:11.951Z,6.05
2023-05-12T07:21:40.741Z,4.82
2023-05-12T07:24:08.957Z,4.78
2023-05-12T07:26:37.628Z,4.95
2023-05-12T07:29:07.437Z,4.43
2023-05-12T07:31:36.122Z,4.30
2023-05-12T07:34:04.751Z,4.70
2023-05-12T07:36:33.375Z,4.30
2023-05-12T07:39:01.745Z,4.45
2023-05-12T07:41:31.995Z,4.07
2023-05-12T07:44:02.379Z,4.10
2023-05-12T07:46:30.927Z,3.92
2023-05-12T07:48:59.198Z,3.90
2023-05-12T07:51:27.836Z,3.92
2023-05-12T07:53:56.614Z,4.00
2023-05-12T07:56:25.175Z,4.05
2023-05-12T07:58:53.744Z,4.32
2023-05-12T08:01:22.347Z,4.78
2023-05-12T08:03:54.028Z,4.22
2023-05-12T08:08:50.757Z,3.63
2023-05-12T08:11:19.350Z,3.85
2023-05-12T08:13:47.551Z,4.10
2023-05-12T08:16:16.104Z,8.00
2023-05-12T08:18:44.719Z,3.30
2023-05-12T08:21:13.323Z,3.63
2023-05-12T08:23:41.628Z,3.38
2023-05-12T08:26:10.127Z,3.72
2023-05-12T08:28:38.985Z,3.70
2023-05-12T08:31:07.758Z,3.92
2023-05-12T08:33:36.420Z,3.60
2023-05-12T08:36:05.345Z,3.45
2023-05-12T08:38:33.607Z,4.10
2023-05-12T08:41:20.103Z,3.85
2023-05-12T08:43:52.674Z,3.72
2023-05-12T08:46:22.299Z,3.33
2023-05-12T08:48:52.263Z,3.97
2023-05-12T08:51:22.161Z,3.83
2023-05-12T08:53:50.994Z,6.25
2023-05-12T08:58:54.299Z,3.53
2023-05-12T09:01:23.545Z,4.20
2023-05-12T09:03:53.170Z,6.70
2023-05-12T09:06:22.207Z,4.38
2023-05-12T09:08:51.759Z,3.47
2023-05-12T09:11:24.219Z,3.20
2023-05-12T09:14:03.637Z,3.58
2023-05-12T09:16:41.699Z,3.45
2023-05-12T09:19:10.063Z,3.60
2023-05-12T09:21:38.747Z,3.78
2023-05-12T09:24:09.295Z,3.28
2023-05-12T09:26:56.186Z,3.40
2023-05-12T09:29:31.876Z,3.30
2023-05-12T09:32:04.676Z,3.45
2023-05-12T09:34:41.108Z,4.80
2023-05-12T09:37:10.486Z,5.55
2023-05-12T09:39:38.814Z,3.65
2023-05-12T09:42:12.737Z,3.17
2023-05-12T09:44:41.477Z,3.17
2023-05-12T09:47:10.634Z,3.28
2023-05-12T09:49:39.000Z,3.30
2023-05-12T09:52:08.233Z,3.47
2023-05-12T09:54:39.858Z,5.47
2023-05-12T09:57:11.492Z,3.45
2023-05-12T09:59:41.640Z,3.55
2023-05-12T10:04:53.229Z,3.20
2023-05-12T10:07:24.076Z,3.92
2023-05-12T10:09:55.662Z,3.15
2023-05-12T10:14:52.417Z,3.30
2023-05-12T10:17:21.408Z,3.03
2023-05-12T10:19:50.807Z,3.85
2023-05-12T10:22:20.058Z,3.65
2023-05-12T10:24:49.302Z,3.25
2023-05-12T10:27:21.411Z,3.13
2023-05-12T10:32:20.180Z,4.20
2023-05-12T10:34:48.468Z,3.53
2023-05-12T10:37:17.052Z,3.72
2023-05-12T10:39:52.966Z,3.47
2023-05-12T10:42:25.781Z,3.20
2023-05-12T10:44:56.477Z,4.10
2023-05-12T10:47:37.351Z,3.08
2023-05-12T10:50:06.384Z,3.33
2023-05-12T10:52:35.111Z,3.22
2023-05-12T10:55:04.584Z,3.30
2023-05-12T10:57:33.942Z,5.18
2023-05-12T11:00:04.305Z,3.55
2023-05-12T11:02:36.989Z,3.30
2023-05-12T11:05:17.473Z,3.58
2023-05-12T11:07:50.482Z,3.35
2023-05-12T11:10:20.049Z,3.80
2023-05-12T11:12:49.933Z,3.30
2023-05-12T11:15:18.439Z,3.45
2023-05-12T11:17:47.126Z,3.50
2023-05-12T11:20:26.748Z,3.28
2023-05-12T11:22:57.438Z,3.80
2023-05-12T11:25:27.877Z,3.30
2023-05-12T11:27:56.839Z,3.70
2023-05-12T11:30:25.137Z,3.45
2023-05-12T11:33:02.561Z,3.90
2023-05-12T11:35:32.346Z,4.00
2023-05-12T11:38:03.056Z,3.47
2023-05-12T11:40:31.614Z,3.50
2023-05-12T11:43:10.236Z,4.05
2023-05-12T11:45:38.687Z,3.35
2023-05-12T11:48:10.145Z,3.53
2023-05-12T11:50:41.017Z,3.38
2023-05-12T11:53:16.010Z,4.05
2023-05-12T11:55:56.475Z,3.78
2023-05-12T11:58:27.319Z,4.13
2023-05-12T12:00:57.329Z,3.85
2023-05-12T12:03:26.106Z,4.05
2023-05-12T12:06:03.435Z,4.47
2023-05-12T12:08:32.119Z,3.88
2023-05-12T12:11:03.401Z,3.90
2023-05-12T12:13:32.373Z,3.88
2023-05-12T12:16:00.713Z,6.80
2023-05-12T12:18:29.345Z,3.90
2023-05-12T12:21:01.780Z,3.83
2023-05-12T12:23:37.661Z,3.50
2023-05-12T12:26:12.503Z,3.78
2023-05-12T12:28:41.245Z,3.50
2023-05-12T12:31:11.567Z,4.20
2023-05-12T12:33:40.818Z,3.70
2023-05-12T12:36:09.941Z,3.33
2023-05-12T12:38:38.614Z,3.35
2023-05-12T12:41:08.235Z,3.30
2023-05-12T12:43:37.048Z,3.35
2023-05-12T12:46:06.144Z,4.10
2023-05-12T12:48:34.693Z,3.45
2023-05-12T12:51:03.013Z,3.47
2023-05-12T12:53:31.786Z,3.40
2023-05-12T12:56:02.728Z,3.90
2023-05-12T13:00:59.452Z,2.90
2023-05-12T13:03:28.111Z,3.72
2023-05-12T13:05:56.375Z,3.85
2023-05-12T13:08:25.018Z,3.50
2023-05-12T13:10:53.583Z,3.00
2023-05-12T13:13:22.589Z,3.50
2023-05-12T13:15:51.618Z,3.58
2023-05-12T13:18:20.787Z,3.55
2023-05-12T13:20:49.223Z,7.93
2023-05-12T13:23:17.752Z,3.65
2023-05-12T13:25:46.562Z,3.75
2023-05-12T13:28:15.457Z,3.47
2023-05-12T13:30:44.330Z,3.83
2023-05-12T13:33:12.986Z,3.55
2023-05-12T13:35:41.747Z,3.97
2023-05-12T13:38:11.043Z,5.25
2023-05-12T13:40:39.272Z,4.38
2023-05-12T13:43:08.549Z,3.78
2023-05-12T13:45:37.035Z,3.75
2023-05-12T13:48:06.853Z,3.83
2023-05-12T13:50:35.231Z,3.55
2023-05-12T13:53:03.975Z,3.35
2023-05-12T13:55:34.393Z,4.00
2023-05-12T13:58:03.046Z,4.18
2023-05-12T14:00:31.478Z,4.75
2023-05-12T14:03:00.160Z,4.60
2023-05-12T14:05:29.078Z,3.67
2023-05-12T14:07:57.825Z,3.72
2023-05-12T14:10:26.258Z,3.50
2023-05-12T14:12:55.514Z,3.42
2023-05-12T14:15:36.123Z,3.83
2023-05-12T14:18:08.998Z,4.07
2023-05-12T14:20:37.249Z,3.97
2023-05-12T14:23:05.840Z,3.40
2023-05-12T14:25:34.355Z,3.72
2023-05-12T14:28:03.664Z,3.60
2023-05-12T14:30:35.074Z,3.63
2023-05-12T14:33:04.277Z,3.50
2023-05-12T14:35:32.654Z,3.45
2023-05-12T14:38:01.394Z,7.10
2023-05-12T14:40:29.645Z,3.80
2023-05-12T14:42:58.338Z,5.32
2023-05-12T14:45:27.030Z,5.20
2023-05-12T14:47:55.560Z,3.35
2023-05-12T14:50:24.225Z,3.50
2023-05-12T14:52:52.940Z,3.85
2023-05-12T14:55:22.706Z,3.50
2023-05-12T14:57:51.748Z,4.30
2023-05-12T15:00:21.392Z,3.55
2023-05-12T15:02:50.023Z,3.92
2023-05-12T15:05:18.486Z,4.05
2023-05-12T15:07:48.086Z,3.95
2023-05-12T15:10:16.457Z,3.60
2023-05-12T15:12:45.260Z,3.70
2023-05-12T15:15:13.763Z,3.60
2023-05-12T15:17:43.732Z,4.15
2023-05-12T15:20:37.474Z,4.10
2023-05-12T15:23:04.704Z,3.45
2023-05-12T15:25:34.248Z,3.65
2023-05-12T15:28:03.140Z,4.05
2023-05-12T15:30:35.894Z,3.42
2023-05-12T15:33:12.105Z,3.78
2023-05-12T15:36:11.818Z,5.60
2023-05-12T15:39:05.693Z,3.40
2023-05-12T15:41:46.017Z,3.45
2023-05-12T15:44:18.475Z,4.35
2023-05-12T15:46:47.180Z,3.30
2023-05-12T15:49:15.929Z,3.47
2023-05-12T15:51:44.690Z,3.50
2023-05-12T15:54:14.846Z,3.88
2023-05-12T15:56:43.620Z,3.60
2023-05-12T15:59:12.810Z,3.30
2023-05-12T16:01:41.249Z,3.50
2023-05-12T16:04:10.196Z,3.40
2023-05-12T16:06:38.776Z,8.52
2023-05-12T16:09:07.445Z,5.22
2023-05-12T16:11:35.897Z,3.47
2023-05-12T16:14:04.710Z,3.83
2023-05-12T16:16:33.633Z,5.10
2023-05-12T16:19:02.485Z,3.63
2023-05-12T16:21:30.898Z,3.17
2023-05-12T16:24:00.804Z,3.13
2023-05-12T16:26:33.290Z,3.13
2023-05-12T16:29:03.639Z,3.33
2023-05-12T16:31:33.894Z,3.88
2023-05-12T16:34:05.661Z,3.92
2023-05-12T16:36:34.107Z,5.07
2023-05-12T16:39:05.092Z,3.53
2023-05-12T16:41:33.370Z,3.33
2023-05-12T16:44:02.297Z,3.50
2023-05-12T16:46:32.781Z,4.05
2023-05-12T16:49:01.935Z,6.03
2023-05-12T16:51:31.114Z,3.13
2023-05-12T16:54:00.001Z,3.47
2023-05-12T16:56:31.834Z,3.25
2023-05-12T16:59:01.167Z,3.17
2023-05-12T17:01:31.727Z,4.85
2023-05-12T17:04:00.486Z,4.22
2023-05-12T17:06:28.868Z,3.50
2023-05-12T17:08:57.664Z,4.47
2023-05-12T17:11:26.360Z,4.00
2023-05-12T17:13:56.800Z,3.65
2023-05-12T17:16:25.196Z,3.75
2023-05-12T17:23:54.574Z,3.72
2023-05-12T17:26:23.110Z,3.63
2023-05-12T17:28:56.303Z,3.70
2023-05-12T17:31:42.194Z,5.30
2023-05-12T17:34:11.075Z,3.65
2023-05-12T17:36:39.636Z,3.47
2023-05-12T17:39:08.492Z,3.65
2023-05-12T17:41:39.564Z,4.30
2023-05-12T17:44:15.004Z,4.28
2023-05-12T17:46:44.720Z,3.72
2023-05-12T17:51:55.570Z,3.85
2023-05-12T17:54:24.266Z,5.35
2023-05-12T17:57:04.175Z,4.88
2023-05-12T18:02:54.090Z,4.30
2023-05-12T18:05:23.122Z,4.40
2023-05-12T18:07:51.755Z,4.18
2023-05-12T18:10:20.420Z,4.25
2023-05-12T18:12:56.300Z,5.28
2023-05-12T18:15:34.600Z,3.90
2023-05-12T18:18:07.617Z,3.78
2023-05-12T18:20:45.528Z,4.50
2023-05-12T18:23:16.455Z,4.30
2023-05-12T18:25:48.601Z,4.18
2023-05-12T18:28:38.909Z,5.03
2023-05-12T18:31:15.883Z,4.70
2023-05-12T18:33:50.114Z,3.72
2023-05-12T18:36:19.507Z,4.43
2023-05-12T18:38:48.327Z,4.57
2023-05-12T18:41:23.143Z,8.82
2023-05-12T18:44:00.879Z,10.43
2023-05-12T18:46:29.619Z,13.10
2023-05-12T18:48:58.118Z,13.27
2023-05-12T18:51:30.115Z,12.00
2023-05-12T18:53:58.617Z,12.00
2023-05-12T18:56:31.637Z,10.85
2023-05-12T18:59:02.513Z,10.80
2023-05-12T19:01:34.368Z,11.20
2023-05-12T19:04:03.867Z,14.95
2023-05-12T19:06:32.997Z,17.05
2023-05-12T19:09:01.559Z,19.65
2023-05-12T19:11:31.621Z,21.73
2023-05-12T19:14:45.429Z,20.10
2023-05-12T19:18:34.753Z,20.08
2023-05-12T19:20:52.288Z,14.80
2023-05-12T19:23:40.249Z,15.48
2023-05-12T19:27:42.463Z,15.48
2023-05-12T19:30:00.503Z,15.05
2023-05-12T19:32:35.887Z,25.27
2023-05-12T19:35:32.756Z,23.70
2023-05-12T19:38:43.632Z,18.67
2023-05-12T19:41:13.586Z,15.95
2023-05-12T19:43:54.136Z,13.68
2023-05-12T19:46:34.105Z,10.77
2023-05-12T19:49:33.201Z,9.27
2023-05-12T19:52:37.038Z,9.52
2023-05-12T19:55:22.492Z,50.13
2023-05-12T19:58:13.051Z,21.25
2023-05-12T20:00:41.633Z,18.15
2023-05-12T20:03:25.768Z,16.05
2023-05-12T20:06:14.600Z,14.35
2023-05-12T20:08:44.647Z,12.00
2023-05-12T20:11:25.190Z,12.77
2023-05-12T20:13:54.804Z,13.65
2023-05-12T20:16:30.831Z,13.55
2023-05-12T20:19:03.034Z,24.23
2023-05-12T20:21:32.206Z,22.25
2023-05-12T20:24:00.579Z,19.05
2023-05-12T20:26:30.747Z,19.45
2023-05-12T20:29:00.357Z,21.10
2023-05-12T20:31:54.160Z,20.23
2023-05-12T20:34:30.232Z,33.05
2023-05-12T20:37:29.831Z,31.13
2023-05-12T20:40:23.567Z,27.90
2023-05-12T20:42:53.945Z,19.58
2023-05-12T20:45:23.273Z,24.88
2023-05-12T20:47:56.663Z,22.65
2023-05-12T20:50:27.825Z,23.52
2023-05-12T20:53:44.096Z,23.48
2023-05-12T20:55:52.229Z,27.30
2023-05-12T20:58:24.573Z,27.23
2023-05-12T21:00:55.991Z,25.05
2023-05-12T21:03:29.409Z,16.73
2023-05-12T21:06:00.459Z,16.23
2023-05-12T21:08:29.748Z,17.48
2023-05-12T21:11:00.187Z,16.83
2023-05-12T21:13:30.802Z,17.42
2023-05-12T21:15:59.568Z,18.10
2023-05-12T21:18:30.733Z,19.05
2023-05-12T21:21:01.732Z,17.98
2023-05-12T21:23:30.626Z,18.50
2023-05-12T21:26:04.441Z,16.48
2023-05-12T21:28:37.939Z,14.07
2023-05-12T21:31:09.938Z,13.57
2023-05-12T21:33:41.388Z,13.57
2023-05-12T21:36:09.908Z,13.90
2023-05-12T21:38:40.925Z,13.75
2023-05-12T21:41:09.581Z,12.85
2023-05-12T21:43:38.303Z,14.13
2023-05-12T21:46:07.409Z,13.90
2023-05-12T21:48:37.102Z,13.40
2023-05-12T21:51:05.656Z,13.57
2023-05-12T21:53:34.322Z,14.02
2023-05-12T21:56:04.164Z,14.05
2023-05-12T21:58:34.613Z,14.45
2023-05-12T22:01:04.639Z,13.93
2023-05-12T22:03:33.608Z,14.15
2023-05-12T22:06:02.375Z,14.68
2023-05-12T22:08:31.128Z,14.20
2023-05-12T22:10:59.900Z,13.43
2023-05-12T22:13:29.022Z,12.70
2023-05-12T22:15:57.399Z,11.55
2023-05-12T22:18:26.211Z,11.82
2023-05-12T22:20:54.836Z,10.85
2023-05-12T22:23:24.943Z,12.07
2023-05-12T22:25:54.709Z,12.48
2023-05-12T22:28:24.142Z,14.50
2023-05-12T22:30:52.777Z,13.85
2023-05-12T22:33:21.799Z,14.05
2023-05-12T22:35:50.080Z,15.15
2023-05-12T22:38:19.916Z,15.23
2023-05-12T22:40:48.323Z,14.80
2023-05-12T22:43:18.223Z,16.05
2023-05-12T22:45:53.505Z,14.23
2023-05-12T22:48:22.861Z,14.98
2023-05-12T22:50:56.728Z,13.93
2023-05-12T22:53:26.974Z,13.82
2023-05-12T22:55:55.197Z,13.73
2023-05-12T22:58:24.556Z,12.80
2023-05-12T23:00:53.184Z,11.90
2023-05-12T23:03:21.968Z,10.25
2023-05-12T23:05:50.736Z,10.07
2023-05-12T23:08:20.126Z,10.98
2023-05-12T23:10:48.616Z,9.88
2023-05-12T23:13:18.331Z,9.70
2023-05-12T23:15:47.865Z,10.05
2023-05-12T23:18:17.027Z,9.13
2023-05-12T23:20:46.165Z,9.73
2023-05-12T23:23:14.590Z,8.98
2023-05-12T23:25:43.449Z,9.52
2023-05-12T23:28:11.803Z,9.20
2023-05-12T23:30:42.333Z,10.10
2023-05-12T23:33:11.676Z,10.02
2023-05-12T23:35:40.374Z,11.65
2023-05-12T23:38:08.849Z,11.82
2023-05-12T23:40:39.489Z,12.23
2023-05-12T23:43:08.388Z,13.00
2023-05-12T23:45:38.976Z,13.60
2023-05-12T23:48:07.736Z,12.43
2023-05-12T23:50:36.818Z,11.60
2023-05-12T23:53:05.204Z,11.00
2023-05-12T23:55:34.263Z,11.52
2023-05-12T23:58:03.704Z,11.15
